Portland, OR

8:07 AM PDT en Octubre 30, 2014 (GMT -0700)
Portland - West Hills | Change Station
CLOSE
Current Station
Estación meteorológica personal
Location: Portland, OR
Altura: 820 ft
Estaciones meteorológicas cercanas

Alt 820 ft 45.49 °N, 122.69 °W | Updated 8 seconds ago

Lluvia
Lluvia
53.9 ° F
Sensación térmica 53.9 ° F
N
1.0
Viento Variable Viento desde NNE
Gusts 3.0 mph

Hoy
Alta -- | Baja -- ° F
--% Posibilidad de precipitaciones
Ayer
Alta -- | Baja -- ° F
Precip. -- pul
7:47 AM 6:00 PM
Creciente, 44% visible
Presión 29.89 pul
Visibilidad 10.0 Millas
Nubes Baja 5000 ft
Nublado 9500 ft
Punto de rocío 52 ° F
Humedad 93%
Precipitaciones 0.02 pul
Espesor de la nieve No disponible.
UV 0 de una escala de 12
Polen .40 de una escala de 12
Calidad del aire No disponible.
Flu Activity No disponible.
METAR KPDX 301453Z 11011KT 10SM -RA FEW050 OVC095 14/12 A2989 RMK AO2 SLP121 P0001 60002 T01390122 56007

More Conditions Fewer Conditions

Presión 29.89 pul
Visibilidad 10.0 Millas
Nubes Baja 5000 ft
Nublado 9500 ft
Punto de rocío 52 ° F
Humedad 93%
Precipitaciones 0.02 pul
Espesor de la nieve No disponible.
UV 0 de una escala de 12
Polen .40 de una escala de 12
Calidad del aire No disponible.
Flu Activity No disponible.
METAR KPDX 301453Z 11011KT 10SM -RA FEW050 OVC095 14/12 A2989 RMK AO2 SLP121 P0001 60002 T01390122 56007

More Conditions Fewer Conditions

10-Day Weather Forecast

Almanac

Astronomía

Oct. 30, 2014 Salida Puesta
Hora real
Crepúsculo civil
Crepúsculo náutico
Crepúsculo astronómico
Luna
Horas de luz
Horas de luz
Tomorrow will be .
, % of the Moon is Illuminated

Extremos de hoy

Máximos del estado Bajos del estado

Community

WunderPhotos

Upload Photos

1,766,387 ¡fotos cargadas!

WunderBlogs® & News

Nearby

Calidad del aire

  Calidad del aire Índice AQ Contaminante
Not available.

Grosos de nieve

Estación Profundido Altura

Actividad de terremotos

Ciudad Distance Mag. Tiempo y dato
Magnitud mínima muestra es 2,5.

Temperaturas de aguas costeras

Lugar Temperatura

Estaciones meteorológicas cercanas